Meteorological Aerodrome Report (METAR)

METAR

METAR for:NVSC (Vanua Lava/Sola Airport)
Text:NVSC 250900Z 00000KT 9999 SHRA BKN018 OVC040 26/25 Q1011 RMK NIL
Temperature: 26.0°C ( 79°F)
Dewpoint: 25.0°C ( 77°F) [RH = 94%]
Pressure (altimeter):29.85 inches Hg (1011.0 mb)
Winds:calm
Visibility:6 or more sm (10+ km)
Ceiling:1800 feet AGL
Clouds: broken clouds at 1800 feet AGL, overcast cloud deck at 4000 feet AGL
Weather:SHRA (rain showers)

METAR

METAR for:NVSG (Ambae/Longana Airport)
Text:NVSG 250900Z AUTO 25001KT //// // NCD 26/24 Q1013 RMK NIL
Temperature: 26.0°C ( 79°F)
Dewpoint: 24.0°C ( 75°F) [RH = 89%]
Pressure (altimeter):29.91 inches Hg (1013.0 mb)
Winds:from the WSW (250 degrees) at 1 MPH (1 knots; 0.5 m/s)
Ceiling:at least 12,000 feet AGL
Clouds:sky clear below 12,000 feet AGL

METAR

METAR for:NVSS (Santo/Pekoa International Airport)
Text:NVSS 250900Z 31003KT 9999 FEW020 BKN110 25/24 Q1012 RMK NIL
Temperature: 25.0°C ( 77°F)
Dewpoint: 24.0°C ( 75°F) [RH = 94%]
Pressure (altimeter):29.88 inches Hg (1012.0 mb)
Winds:from the NW (310 degrees) at 3 MPH (3 knots; 1.5 m/s)
Visibility:6 or more sm (10+ km)
Ceiling:11000 feet AGL
Clouds: few clouds at 2000 feet AGL, broken clouds at 11000 feet AGL

METAR

METAR for:NVSL (Malekula/Lamap Airport)
Text:NVSL 250900Z 09013KT 9999 SCT025 BKN110 26/24 Q1010 RMK NIL
Temperature: 26.0°C ( 79°F)
Dewpoint: 24.0°C ( 75°F) [RH = 89%]
Pressure (altimeter):29.82 inches Hg (1010.0 mb)
Winds:from the E (90 degrees) at 15 MPH (13 knots; 6.7 m/s)
Visibility:6 or more sm (10+ km)
Ceiling:11000 feet AGL
Clouds: scattered clouds at 2500 feet AGL, broken clouds at 11000 feet AGL

METAR

METAR for:NVSP (Malekula/Norsup Airport) (Norsup Arpt, --, NV)
Text:NVSP (Malekula/Norsup Airport) 250900Z AUTO 09004KT //// // NCD 27/24 Q1011 RMK NIL
Temperature: 27.0°C ( 81°F)
Dewpoint: 24.0°C ( 75°F) [RH = 84%]
Pressure (altimeter):29.85 inches Hg (1011.0 mb)
Winds:from the E (90 degrees) at 5 MPH (4 knots; 2.1 m/s)
Ceiling:at least 12,000 feet AGL
Clouds:sky clear below 12,000 feet AGL

METAR

METAR for:NVVV (Efate/Bauerfield International Airport)
Text:NVVV 251000Z 10003KT 9999 SCT020 BKN045 24/23 Q1013 RMK NIL
Temperature: 24.0°C ( 75°F)
Dewpoint: 23.0°C ( 73°F) [RH = 94%]
Pressure (altimeter):29.91 inches Hg (1013.0 mb)
Winds:from the E (100 degrees) at 3 MPH (3 knots; 1.5 m/s)
Visibility:6 or more sm (10+ km)
Ceiling:4500 feet AGL
Clouds: scattered clouds at 2000 feet AGL, broken clouds at 4500 feet AGL

METAR

METAR for:NVVW (Tanna/WhiteGrass International Airport)
Text:NVVW 250900Z AUTO 09004KT //// // NCD 25/22 Q1012 RMK NIL
Temperature: 25.0°C ( 77°F)
Dewpoint: 22.0°C ( 72°F) [RH = 83%]
Pressure (altimeter):29.88 inches Hg (1012.0 mb)
Winds:from the E (90 degrees) at 5 MPH (4 knots; 2.1 m/s)
Ceiling:at least 12,000 feet AGL
Clouds:sky clear below 12,000 feet AGL

METAR

METAR for:NVVA (Aneityum/Anelcahuat Airport)
Text:NVVA 250900Z AUTO 02007KT //// // NCD 25/23 Q1013 RMK NIL
Temperature: 25.0°C ( 77°F)
Dewpoint: 23.0°C ( 73°F) [RH = 89%]
Pressure (altimeter):29.91 inches Hg (1013.0 mb)
Winds:from the NNE (20 degrees) at 8 MPH (7 knots; 3.6 m/s)
Ceiling:at least 12,000 feet AGL
Clouds:sky clear below 12,000 feet AGL

METAR

ADDS METAR Data INFO
IDs: Format: Raw Decoded Include TAF

Data at: 1021 UTC 25 Apr 2018

NVSC 250900Z 00000KT 9999 SHRA BKN018 OVC040 26/25 Q1011 RMK NIL
NVSG 250900Z AUTO 25001KT //// // NCD 26/24 Q1013 RMK NIL
NVSS 250900Z 31003KT 9999 FEW020 BKN110 25/24 Q1012 RMK NIL
NVSL 250900Z 09013KT 9999 SCT025 BKN110 26/24 Q1010 RMK NIL
NVSP 250900Z AUTO 09004KT //// // NCD 27/24 Q1011 RMK NIL
NVVV 251000Z 10003KT 9999 SCT020 BKN045 24/23 Q1013 RMK NIL
NVVW 250900Z AUTO 09004KT //// // NCD 25/22 Q1012 RMK NIL
NVVA 250900Z AUTO 02007KT //// // NCD 25/23 Q1013 RMK NIL